sensor_id;sensor_type;location;lat;lon;timestamp;pressure;altitude;pressure_sealevel;temperature
13570;BMP180;6856;51.460;7.158;2022-09-19T00:01:14;100421.00;;;13.90
13570;BMP180;6856;51.460;7.158;2022-09-19T00:03:53;100401.00;;;13.90
13570;BMP180;6856;51.460;7.158;2022-09-19T00:06:29;100410.00;;;13.80
13570;BMP180;6856;51.460;7.158;2022-09-19T00:09:07;100424.00;;;13.90
13570;BMP180;6856;51.460;7.158;2022-09-19T00:11:44;100423.00;;;13.90
13570;BMP180;6856;51.460;7.158;2022-09-19T00:14:21;100412.00;;;13.90
13570;BMP180;6856;51.460;7.158;2022-09-19T00:16:58;100408.00;;;13.90
13570;BMP180;6856;51.460;7.158;2022-09-19T00:19:32;100412.00;;;13.90
13570;BMP180;6856;51.460;7.158;2022-09-19T00:22:06;100404.00;;;13.90
13570;BMP180;6856;51.460;7.158;2022-09-19T00:24:42;100412.00;;;13.90
13570;BMP180;6856;51.460;7.158;2022-09-19T00:27:21;100408.00;;;13.90
13570;BMP180;6856;51.460;7.158;2022-09-19T00:29:55;100416.00;;;13.90
13570;BMP180;6856;51.460;7.158;2022-09-19T00:32:30;100408.00;;;13.90
13570;BMP180;6856;51.460;7.158;2022-09-19T00:35:07;100425.00;;;13.90
13570;BMP180;6856;51.460;7.158;2022-09-19T00:37:40;100420.00;;;13.90
13570;BMP180;6856;51.460;7.158;2022-09-19T00:40:15;100417.00;;;13.90
13570;BMP180;6856;51.460;7.158;2022-09-19T00:42:50;100420.00;;;13.90
13570;BMP180;6856;51.460;7.158;2022-09-19T00:45:23;100426.00;;;13.90
13570;BMP180;6856;51.460;7.158;2022-09-19T00:47:56;100409.00;;;13.90
13570;BMP180;6856;51.460;7.158;2022-09-19T00:50:32;100425.00;;;13.90
13570;BMP180;6856;51.460;7.158;2022-09-19T00:53:10;100405.00;;;13.90
13570;BMP180;6856;51.460;7.158;2022-09-19T00:55:53;100410.00;;;13.90
13570;BMP180;6856;51.460;7.158;2022-09-19T00:58:30;100425.00;;;13.90
13570;BMP180;6856;51.460;7.158;2022-09-19T01:01:05;100433.00;;;13.90
13570;BMP180;6856;51.460;7.158;2022-09-19T01:03:39;100426.00;;;14.00
13570;BMP180;6856;51.460;7.158;2022-09-19T01:06:38;100429.00;;;14.00
13570;BMP180;6856;51.460;7.158;2022-09-19T01:09:31;100431.00;;;14.00
13570;BMP180;6856;51.460;7.158;2022-09-19T01:12:29;100442.00;;;14.00
13570;BMP180;6856;51.460;7.158;2022-09-19T01:15:31;100439.00;;;14.00
13570;BMP180;6856;51.460;7.158;2022-09-19T01:18:09;100447.00;;;14.00
13570;BMP180;6856;51.460;7.158;2022-09-19T01:21:12;100443.00;;;14.00
13570;BMP180;6856;51.460;7.158;2022-09-19T01:27:52;100452.00;;;14.00
13570;BMP180;6856;51.460;7.158;2022-09-19T01:30:27;100447.00;;;14.00
13570;BMP180;6856;51.460;7.158;2022-09-19T01:33:09;100426.00;;;14.00
13570;BMP180;6856;51.460;7.158;2022-09-19T01:35:48;100459.00;;;14.00
13570;BMP180;6856;51.460;7.158;2022-09-19T01:38:27;100445.00;;;14.00
13570;BMP180;6856;51.460;7.158;2022-09-19T01:41:02;100455.00;;;14.10
13570;BMP180;6856;51.460;7.158;2022-09-19T01:43:37;100455.00;;;14.10
13570;BMP180;6856;51.460;7.158;2022-09-19T01:46:22;100448.00;;;14.10
13570;BMP180;6856;51.460;7.158;2022-09-19T01:49:08;100463.00;;;14.10
13570;BMP180;6856;51.460;7.158;2022-09-19T01:51:48;100458.00;;;14.00
13570;BMP180;6856;51.460;7.158;2022-09-19T01:54:37;100461.00;;;14.10
13570;BMP180;6856;51.460;7.158;2022-09-19T01:57:27;100459.00;;;14.10
13570;BMP180;6856;51.460;7.158;2022-09-19T02:00:12;100456.00;;;14.10
13570;BMP180;6856;51.460;7.158;2022-09-19T02:02:58;100450.00;;;14.10
13570;BMP180;6856;51.460;7.158;2022-09-19T02:05:44;100465.00;;;14.10
13570;BMP180;6856;51.460;7.158;2022-09-19T02:08:30;100466.00;;;14.10
13570;BMP180;6856;51.460;7.158;2022-09-19T02:11:10;100470.00;;;14.10
13570;BMP180;6856;51.460;7.158;2022-09-19T02:13:53;100407.00;;;14.10
13570;BMP180;6856;51.460;7.158;2022-09-19T02:16:35;100486.00;;;14.10
13570;BMP180;6856;51.460;7.158;2022-09-19T02:19:23;100444.00;;;14.10
13570;BMP180;6856;51.460;7.158;2022-09-19T02:22:07;100462.00;;;14.10
13570;BMP180;6856;51.460;7.158;2022-09-19T02:24:46;100474.00;;;14.10
13570;BMP180;6856;51.460;7.158;2022-09-19T02:27:27;100462.00;;;14.10
13570;BMP180;6856;51.460;7.158;2022-09-19T02:30:05;100480.00;;;14.10
13570;BMP180;6856;51.460;7.158;2022-09-19T02:32:41;100457.00;;;14.00
13570;BMP180;6856;51.460;7.158;2022-09-19T02:35:27;100476.00;;;14.10
13570;BMP180;6856;51.460;7.158;2022-09-19T02:38:15;100483.00;;;14.10
13570;BMP180;6856;51.460;7.158;2022-09-19T02:41:01;100473.00;;;14.10
13570;BMP180;6856;51.460;7.158;2022-09-19T02:43:45;100475.00;;;14.10
13570;BMP180;6856;51.460;7.158;2022-09-19T02:46:32;100483.00;;;14.10
13570;BMP180;6856;51.460;7.158;2022-09-19T02:49:13;100470.00;;;14.10
13570;BMP180;6856;51.460;7.158;2022-09-19T02:51:54;100493.00;;;14.10
13570;BMP180;6856;51.460;7.158;2022-09-19T02:54:33;100501.00;;;13.90
13570;BMP180;6856;51.460;7.158;2022-09-19T02:57:14;100494.00;;;14.00
13570;BMP180;6856;51.460;7.158;2022-09-19T02:59:55;100499.00;;;14.00
13570;BMP180;6856;51.460;7.158;2022-09-19T03:02:35;100498.00;;;14.00
13570;BMP180;6856;51.460;7.158;2022-09-19T03:05:16;100494.00;;;14.00
13570;BMP180;6856;51.460;7.158;2022-09-19T03:07:57;100486.00;;;14.00
13570;BMP180;6856;51.460;7.158;2022-09-19T03:10:35;100496.00;;;14.00
13570;BMP180;6856;51.460;7.158;2022-09-19T03:13:10;100500.00;;;14.00
13570;BMP180;6856;51.460;7.158;2022-09-19T03:15:50;100506.00;;;14.00
13570;BMP180;6856;51.460;7.158;2022-09-19T03:18:26;100511.00;;;14.00
13570;BMP180;6856;51.460;7.158;2022-09-19T03:21:08;100504.00;;;14.00
13570;BMP180;6856;51.460;7.158;2022-09-19T03:23:44;100492.00;;;14.00
13570;BMP180;6856;51.460;7.158;2022-09-19T03:26:21;100507.00;;;13.90
13570;BMP180;6856;51.460;7.158;2022-09-19T03:28:58;100504.00;;;14.00
13570;BMP180;6856;51.460;7.158;2022-09-19T03:31:33;100500.00;;;14.00
13570;BMP180;6856;51.460;7.158;2022-09-19T03:34:07;100511.00;;;14.00
13570;BMP180;6856;51.460;7.158;2022-09-19T03:36:42;100513.00;;;14.00
13570;BMP180;6856;51.460;7.158;2022-09-19T03:39:15;100512.00;;;14.00
13570;BMP180;6856;51.460;7.158;2022-09-19T03:41:49;100487.00;;;14.00
13570;BMP180;6856;51.460;7.158;2022-09-19T03:44:23;100516.00;;;14.00
13570;BMP180;6856;51.460;7.158;2022-09-19T03:46:56;100516.00;;;14.00
13570;BMP180;6856;51.460;7.158;2022-09-19T03:49:30;100517.00;;;14.00
13570;BMP180;6856;51.460;7.158;2022-09-19T03:52:04;100506.00;;;14.00
13570;BMP180;6856;51.460;7.158;2022-09-19T03:54:38;100508.00;;;14.00
13570;BMP180;6856;51.460;7.158;2022-09-19T03:57:12;100510.00;;;14.00
13570;BMP180;6856;51.460;7.158;2022-09-19T03:59:46;100513.00;;;14.00
13570;BMP180;6856;51.460;7.158;2022-09-19T04:02:19;100517.00;;;14.00
13570;BMP180;6856;51.460;7.158;2022-09-19T04:04:58;100494.00;;;14.00
13570;BMP180;6856;51.460;7.158;2022-09-19T04:07:34;100500.00;;;14.00
13570;BMP180;6856;51.460;7.158;2022-09-19T04:10:10;100526.00;;;14.00
13570;BMP180;6856;51.460;7.158;2022-09-19T04:12:43;100517.00;;;14.10
13570;BMP180;6856;51.460;7.158;2022-09-19T04:15:17;100517.00;;;14.10
13570;BMP180;6856;51.460;7.158;2022-09-19T04:17:50;100527.00;;;14.10
13570;BMP180;6856;51.460;7.158;2022-09-19T04:20:24;100534.00;;;14.10
13570;BMP180;6856;51.460;7.158;2022-09-19T04:23:00;100533.00;;;14.00
13570;BMP180;6856;51.460;7.158;2022-09-19T04:25:34;100508.00;;;14.00
13570;BMP180;6856;51.460;7.158;2022-09-19T04:28:09;100521.00;;;14.00
13570;BMP180;6856;51.460;7.158;2022-09-19T04:30:44;100542.00;;;14.00
13570;BMP180;6856;51.460;7.158;2022-09-19T04:33:18;100538.00;;;14.00
13570;BMP180;6856;51.460;7.158;2022-09-19T04:35:54;100554.00;;;14.00
13570;BMP180;6856;51.460;7.158;2022-09-19T04:38:35;100542.00;;;14.00
13570;BMP180;6856;51.460;7.158;2022-09-19T04:41:09;100535.00;;;14.00
13570;BMP180;6856;51.460;7.158;2022-09-19T04:43:42;100542.00;;;14.00
13570;BMP180;6856;51.460;7.158;2022-09-19T04:46:18;100541.00;;;14.00
13570;BMP180;6856;51.460;7.158;2022-09-19T04:48:54;100539.00;;;14.00
13570;BMP180;6856;51.460;7.158;2022-09-19T04:51:28;100550.00;;;14.00
13570;BMP180;6856;51.460;7.158;2022-09-19T04:54:05;100548.00;;;14.00
13570;BMP180;6856;51.460;7.158;2022-09-19T04:56:38;100556.00;;;14.00
13570;BMP180;6856;51.460;7.158;2022-09-19T04:59:13;100555.00;;;14.10
13570;BMP180;6856;51.460;7.158;2022-09-19T05:01:49;100542.00;;;14.10
13570;BMP180;6856;51.460;7.158;2022-09-19T05:04:24;100548.00;;;14.10
13570;BMP180;6856;51.460;7.158;2022-09-19T05:06:58;100566.00;;;14.10
13570;BMP180;6856;51.460;7.158;2022-09-19T05:09:33;100578.00;;;14.10
13570;BMP180;6856;51.460;7.158;2022-09-19T05:12:06;100562.00;;;14.10
13570;BMP180;6856;51.460;7.158;2022-09-19T05:14:41;100564.00;;;14.10
13570;BMP180;6856;51.460;7.158;2022-09-19T05:17:14;100564.00;;;14.10
13570;BMP180;6856;51.460;7.158;2022-09-19T05:19:48;100563.00;;;14.10
13570;BMP180;6856;51.460;7.158;2022-09-19T05:22:21;100560.00;;;14.10
13570;BMP180;6856;51.460;7.158;2022-09-19T05:24:56;100582.00;;;14.10
13570;BMP180;6856;51.460;7.158;2022-09-19T05:27:36;100534.00;;;14.20
13570;BMP180;6856;51.460;7.158;2022-09-19T05:30:11;100580.00;;;14.20
13570;BMP180;6856;51.460;7.158;2022-09-19T05:32:46;100576.00;;;14.10
13570;BMP180;6856;51.460;7.158;2022-09-19T05:35:19;100580.00;;;14.20
13570;BMP180;6856;51.460;7.158;2022-09-19T05:37:53;100593.00;;;14.20
13570;BMP180;6856;51.460;7.158;2022-09-19T05:40:28;100577.00;;;14.20
13570;BMP180;6856;51.460;7.158;2022-09-19T05:43:01;100597.00;;;14.20
13570;BMP180;6856;51.460;7.158;2022-09-19T05:45:35;100594.00;;;14.20
13570;BMP180;6856;51.460;7.158;2022-09-19T05:48:09;100602.00;;;14.30
13570;BMP180;6856;51.460;7.158;2022-09-19T05:50:43;100607.00;;;14.20
13570;BMP180;6856;51.460;7.158;2022-09-19T05:53:17;100596.00;;;14.20
13570;BMP180;6856;51.460;7.158;2022-09-19T05:56:09;100607.00;;;14.20
13570;BMP180;6856;51.460;7.158;2022-09-19T05:58:43;100607.00;;;14.20
13570;BMP180;6856;51.460;7.158;2022-09-19T06:01:16;100605.00;;;14.20
13570;BMP180;6856;51.460;7.158;2022-09-19T06:03:49;100594.00;;;14.20
13570;BMP180;6856;51.460;7.158;2022-09-19T06:06:23;100617.00;;;14.20
13570;BMP180;6856;51.460;7.158;2022-09-19T06:08:57;100619.00;;;14.20
13570;BMP180;6856;51.460;7.158;2022-09-19T06:11:32;100617.00;;;14.20
13570;BMP180;6856;51.460;7.158;2022-09-19T06:14:07;100622.00;;;14.20
13570;BMP180;6856;51.460;7.158;2022-09-19T06:16:49;100620.00;;;14.30
13570;BMP180;6856;51.460;7.158;2022-09-19T06:19:23;100627.00;;;14.20
13570;BMP180;6856;51.460;7.158;2022-09-19T06:21:56;100627.00;;;14.30
13570;BMP180;6856;51.460;7.158;2022-09-19T06:24:30;100633.00;;;14.30
13570;BMP180;6856;51.460;7.158;2022-09-19T06:27:05;100632.00;;;14.30
13570;BMP180;6856;51.460;7.158;2022-09-19T06:29:38;100635.00;;;14.30
13570;BMP180;6856;51.460;7.158;2022-09-19T06:32:11;100648.00;;;14.30
13570;BMP180;6856;51.460;7.158;2022-09-19T06:34:45;100648.00;;;14.40
13570;BMP180;6856;51.460;7.158;2022-09-19T06:37:29;100652.00;;;14.40
13570;BMP180;6856;51.460;7.158;2022-09-19T06:40:03;100662.00;;;14.40
13570;BMP180;6856;51.460;7.158;2022-09-19T06:42:38;100652.00;;;14.50
13570;BMP180;6856;51.460;7.158;2022-09-19T06:45:12;100655.00;;;14.50
13570;BMP180;6856;51.460;7.158;2022-09-19T06:47:45;100658.00;;;14.50
13570;BMP180;6856;51.460;7.158;2022-09-19T06:50:19;100634.00;;;14.60
13570;BMP180;6856;51.460;7.158;2022-09-19T06:52:52;100677.00;;;14.60
13570;BMP180;6856;51.460;7.158;2022-09-19T06:55:26;100673.00;;;14.60
13570;BMP180;6856;51.460;7.158;2022-09-19T06:58:05;100680.00;;;14.70
13570;BMP180;6856;51.460;7.158;2022-09-19T07:00:39;100671.00;;;14.70
13570;BMP180;6856;51.460;7.158;2022-09-19T07:03:17;100674.00;;;14.80
13570;BMP180;6856;51.460;7.158;2022-09-19T07:05:51;100672.00;;;14.80
13570;BMP180;6856;51.460;7.158;2022-09-19T07:08:24;100676.00;;;14.90
13570;BMP180;6856;51.460;7.158;2022-09-19T07:10:58;100689.00;;;14.90
13570;BMP180;6856;51.460;7.158;2022-09-19T07:13:33;100677.00;;;15.00
13570;BMP180;6856;51.460;7.158;2022-09-19T07:16:06;100688.00;;;15.00
13570;BMP180;6856;51.460;7.158;2022-09-19T07:18:39;100704.00;;;15.10
13570;BMP180;6856;51.460;7.158;2022-09-19T07:21:13;100700.00;;;15.10
13570;BMP180;6856;51.460;7.158;2022-09-19T07:23:46;100696.00;;;15.20
13570;BMP180;6856;51.460;7.158;2022-09-19T07:26:20;100705.00;;;15.20
13570;BMP180;6856;51.460;7.158;2022-09-19T07:28:57;100701.00;;;15.30
13570;BMP180;6856;51.460;7.158;2022-09-19T07:31:30;100700.00;;;15.30
13570;BMP180;6856;51.460;7.158;2022-09-19T07:34:04;100697.00;;;15.40
13570;BMP180;6856;51.460;7.158;2022-09-19T07:36:38;100712.00;;;15.40
13570;BMP180;6856;51.460;7.158;2022-09-19T07:39:11;100689.00;;;15.40
13570;BMP180;6856;51.460;7.158;2022-09-19T07:41:47;100716.00;;;15.50
13570;BMP180;6856;51.460;7.158;2022-09-19T07:44:21;100706.00;;;15.50
13570;BMP180;6856;51.460;7.158;2022-09-19T07:46:55;100713.00;;;15.60
13570;BMP180;6856;51.460;7.158;2022-09-19T07:49:51;100716.00;;;15.60
13570;BMP180;6856;51.460;7.158;2022-09-19T07:52:26;100721.00;;;15.60
13570;BMP180;6856;51.460;7.158;2022-09-19T07:54:59;100730.00;;;15.70
13570;BMP180;6856;51.460;7.158;2022-09-19T07:57:33;100739.00;;;15.70
13570;BMP180;6856;51.460;7.158;2022-09-19T08:00:09;100712.00;;;15.80
13570;BMP180;6856;51.460;7.158;2022-09-19T08:02:43;100717.00;;;15.90
13570;BMP180;6856;51.460;7.158;2022-09-19T08:05:16;100735.00;;;15.90
13570;BMP180;6856;51.460;7.158;2022-09-19T08:07:53;100740.00;;;15.90
13570;BMP180;6856;51.460;7.158;2022-09-19T08:10:27;100747.00;;;16.00
13570;BMP180;6856;51.460;7.158;2022-09-19T08:13:05;100744.00;;;16.00
13570;BMP180;6856;51.460;7.158;2022-09-19T08:15:43;100745.00;;;16.10
13570;BMP180;6856;51.460;7.158;2022-09-19T08:18:19;100750.00;;;16.10
13570;BMP180;6856;51.460;7.158;2022-09-19T08:20:55;100748.00;;;16.20
13570;BMP180;6856;51.460;7.158;2022-09-19T08:23:29;100747.00;;;16.20
13570;BMP180;6856;51.460;7.158;2022-09-19T08:26:04;100748.00;;;16.40
13570;BMP180;6856;51.460;7.158;2022-09-19T08:28:38;100760.00;;;16.50
13570;BMP180;6856;51.460;7.158;2022-09-19T08:31:13;100728.00;;;16.60
13570;BMP180;6856;51.460;7.158;2022-09-19T08:33:48;100750.00;;;16.70
13570;BMP180;6856;51.460;7.158;2022-09-19T08:36:21;100758.00;;;16.70
13570;BMP180;6856;51.460;7.158;2022-09-19T08:38:55;100759.00;;;16.80
13570;BMP180;6856;51.460;7.158;2022-09-19T08:41:48;100763.00;;;16.90
13570;BMP180;6856;51.460;7.158;2022-09-19T08:44:42;100761.00;;;17.00
13570;BMP180;6856;51.460;7.158;2022-09-19T08:47:21;100756.00;;;17.10
13570;BMP180;6856;51.460;7.158;2022-09-19T08:50:02;100755.00;;;17.20
13570;BMP180;6856;51.460;7.158;2022-09-19T08:52:43;100760.00;;;17.40
13570;BMP180;6856;51.460;7.158;2022-09-19T08:55:22;100759.00;;;17.40
13570;BMP180;6856;51.460;7.158;2022-09-19T08:57:58;100773.00;;;17.50
13570;BMP180;6856;51.460;7.158;2022-09-19T09:00:40;100763.00;;;17.60
13570;BMP180;6856;51.460;7.158;2022-09-19T09:03:20;100762.00;;;17.70
13570;BMP180;6856;51.460;7.158;2022-09-19T09:06:15;100756.00;;;17.80
13570;BMP180;6856;51.460;7.158;2022-09-19T09:09:01;100765.00;;;17.80
13570;BMP180;6856;51.460;7.158;2022-09-19T09:11:53;100768.00;;;18.00
13570;BMP180;6856;51.460;7.158;2022-09-19T09:14:44;100773.00;;;18.10
13570;BMP180;6856;51.460;7.158;2022-09-19T09:17:56;100771.00;;;18.20
13570;BMP180;6856;51.460;7.158;2022-09-19T09:20:47;100775.00;;;18.30
13570;BMP180;6856;51.460;7.158;2022-09-19T09:23:29;100773.00;;;18.50
13570;BMP180;6856;51.460;7.158;2022-09-19T09:26:09;100777.00;;;18.50
13570;BMP180;6856;51.460;7.158;2022-09-19T09:28:51;100768.00;;;18.60
13570;BMP180;6856;51.460;7.158;2022-09-19T09:31:31;100782.00;;;18.70
13570;BMP180;6856;51.460;7.158;2022-09-19T09:34:17;100772.00;;;18.70
13570;BMP180;6856;51.460;7.158;2022-09-19T09:36:58;100774.00;;;18.80
13570;BMP180;6856;51.460;7.158;2022-09-19T09:39:38;100776.00;;;19.00
13570;BMP180;6856;51.460;7.158;2022-09-19T09:42:37;100776.00;;;19.00
13570;BMP180;6856;51.460;7.158;2022-09-19T09:45:20;100775.00;;;19.00
13570;BMP180;6856;51.460;7.158;2022-09-19T09:48:08;100784.00;;;19.10
13570;BMP180;6856;51.460;7.158;2022-09-19T09:51:08;100780.00;;;19.10
13570;BMP180;6856;51.460;7.158;2022-09-19T09:54:15;100777.00;;;19.00
13570;BMP180;6856;51.460;7.158;2022-09-19T09:57:16;100775.00;;;19.10
13570;BMP180;6856;51.460;7.158;2022-09-19T09:59:58;100773.00;;;19.10
13570;BMP180;6856;51.460;7.158;2022-09-19T10:03:03;100775.00;;;19.10
13570;BMP180;6856;51.460;7.158;2022-09-19T10:06:03;100774.00;;;19.10
13570;BMP180;6856;51.460;7.158;2022-09-19T10:08:44;100766.00;;;19.10
13570;BMP180;6856;51.460;7.158;2022-09-19T10:11:37;100754.00;;;19.10
13570;BMP180;6856;51.460;7.158;2022-09-19T10:14:37;100776.00;;;19.10
13570;BMP180;6856;51.460;7.158;2022-09-19T10:17:12;100721.00;;;19.10
13570;BMP180;6856;51.460;7.158;2022-09-19T10:19:54;100774.00;;;19.10
13570;BMP180;6856;51.460;7.158;2022-09-19T10:22:28;100774.00;;;19.10
13570;BMP180;6856;51.460;7.158;2022-09-19T10:25:09;100766.00;;;19.10
13570;BMP180;6856;51.460;7.158;2022-09-19T10:27:44;100773.00;;;19.10
13570;BMP180;6856;51.460;7.158;2022-09-19T10:30:24;100771.00;;;19.10
13570;BMP180;6856;51.460;7.158;2022-09-19T10:32:57;100762.00;;;19.10
13570;BMP180;6856;51.460;7.158;2022-09-19T10:35:34;100771.00;;;19.30
13570;BMP180;6856;51.460;7.158;2022-09-19T10:38:12;100770.00;;;19.40
13570;BMP180;6856;51.460;7.158;2022-09-19T10:40:55;100760.00;;;19.40
13570;BMP180;6856;51.460;7.158;2022-09-19T10:43:35;100759.00;;;19.50
13570;BMP180;6856;51.460;7.158;2022-09-19T10:46:18;100755.00;;;19.60
13570;BMP180;6856;51.460;7.158;2022-09-19T10:48:56;100740.00;;;19.70
13570;BMP180;6856;51.460;7.158;2022-09-19T10:51:34;100759.00;;;19.80
13570;BMP180;6856;51.460;7.158;2022-09-19T10:54:11;100764.00;;;19.80
13570;BMP180;6856;51.460;7.158;2022-09-19T10:56:44;100758.00;;;19.90
13570;BMP180;6856;51.460;7.158;2022-09-19T10:59:27;100761.00;;;19.90
13570;BMP180;6856;51.460;7.158;2022-09-19T11:02:19;100765.00;;;19.90
13570;BMP180;6856;51.460;7.158;2022-09-19T11:04:57;100780.00;;;19.90
13570;BMP180;6856;51.460;7.158;2022-09-19T11:07:47;100749.00;;;19.90
13570;BMP180;6856;51.460;7.158;2022-09-19T11:10:37;100765.00;;;20.00
13570;BMP180;6856;51.460;7.158;2022-09-19T11:13:14;100744.00;;;20.10
13570;BMP180;6856;51.460;7.158;2022-09-19T11:16:15;100762.00;;;20.20
13570;BMP180;6856;51.460;7.158;2022-09-19T11:19:16;100762.00;;;20.30
13570;BMP180;6856;51.460;7.158;2022-09-19T11:22:14;100759.00;;;20.40
13570;BMP180;6856;51.460;7.158;2022-09-19T11:25:01;100753.00;;;20.50
13570;BMP180;6856;51.460;7.158;2022-09-19T11:27:57;100758.00;;;20.60
13570;BMP180;6856;51.460;7.158;2022-09-19T11:30:43;100756.00;;;20.70
13570;BMP180;6856;51.460;7.158;2022-09-19T11:33:42;100756.00;;;20.80
13570;BMP180;6856;51.460;7.158;2022-09-19T11:36:52;100751.00;;;20.90
13570;BMP180;6856;51.460;7.158;2022-09-19T11:39:49;100755.00;;;21.00
13570;BMP180;6856;51.460;7.158;2022-09-19T11:42:41;100761.00;;;21.10
13570;BMP180;6856;51.460;7.158;2022-09-19T11:45:20;100750.00;;;21.20
13570;BMP180;6856;51.460;7.158;2022-09-19T11:48:13;100759.00;;;21.20
13570;BMP180;6856;51.460;7.158;2022-09-19T11:51:15;100755.00;;;21.20
13570;BMP180;6856;51.460;7.158;2022-09-19T11:54:06;100759.00;;;21.10
13570;BMP180;6856;51.460;7.158;2022-09-19T11:57:04;100749.00;;;21.00
13570;BMP180;6856;51.460;7.158;2022-09-19T12:00:03;100767.00;;;21.00
13570;BMP180;6856;51.460;7.158;2022-09-19T12:03:15;100773.00;;;20.90
13570;BMP180;6856;51.460;7.158;2022-09-19T12:06:13;100751.00;;;20.70
13570;BMP180;6856;51.460;7.158;2022-09-19T12:09:14;100787.00;;;20.50
13570;BMP180;6856;51.460;7.158;2022-09-19T12:11:54;100778.00;;;20.40
13570;BMP180;6856;51.460;7.158;2022-09-19T12:14:34;100777.00;;;20.30
13570;BMP180;6856;51.460;7.158;2022-09-19T12:17:17;100779.00;;;20.30
13570;BMP180;6856;51.460;7.158;2022-09-19T12:19:58;100766.00;;;20.10
13570;BMP180;6856;51.460;7.158;2022-09-19T12:22:38;100746.00;;;20.20
13570;BMP180;6856;51.460;7.158;2022-09-19T12:25:28;100773.00;;;20.10
13570;BMP180;6856;51.460;7.158;2022-09-19T12:28:08;100765.00;;;20.10
13570;BMP180;6856;51.460;7.158;2022-09-19T12:30:47;100771.00;;;20.10
13570;BMP180;6856;51.460;7.158;2022-09-19T12:33:34;100771.00;;;20.10
13570;BMP180;6856;51.460;7.158;2022-09-19T12:36:20;100775.00;;;20.10
13570;BMP180;6856;51.460;7.158;2022-09-19T12:39:07;100762.00;;;20.20
13570;BMP180;6856;51.460;7.158;2022-09-19T12:41:49;100760.00;;;20.20
13570;BMP180;6856;51.460;7.158;2022-09-19T12:44:35;100774.00;;;20.30
13570;BMP180;6856;51.460;7.158;2022-09-19T12:47:21;100768.00;;;20.40
13570;BMP180;6856;51.460;7.158;2022-09-19T12:50:15;100773.00;;;20.50
13570;BMP180;6856;51.460;7.158;2022-09-19T12:53:09;100775.00;;;20.50
13570;BMP180;6856;51.460;7.158;2022-09-19T12:55:58;100773.00;;;20.60
13570;BMP180;6856;51.460;7.158;2022-09-19T12:58:44;100771.00;;;20.70
13570;BMP180;6856;51.460;7.158;2022-09-19T13:01:24;100774.00;;;20.70
13570;BMP180;6856;51.460;7.158;2022-09-19T13:04:14;100767.00;;;20.80
13570;BMP180;6856;51.460;7.158;2022-09-19T13:07:06;100776.00;;;20.80
13570;BMP180;6856;51.460;7.158;2022-09-19T13:09:53;100776.00;;;20.80
13570;BMP180;6856;51.460;7.158;2022-09-19T13:12:42;100751.00;;;20.90
13570;BMP180;6856;51.460;7.158;2022-09-19T13:15:26;100784.00;;;20.80
13570;BMP180;6856;51.460;7.158;2022-09-19T13:18:02;100771.00;;;20.80
13570;BMP180;6856;51.460;7.158;2022-09-19T13:20:55;100781.00;;;20.80
13570;BMP180;6856;51.460;7.158;2022-09-19T13:23:54;100788.00;;;20.70
13570;BMP180;6856;51.460;7.158;2022-09-19T13:26:31;100788.00;;;20.70
13570;BMP180;6856;51.460;7.158;2022-09-19T13:29:44;100780.00;;;20.60
13570;BMP180;6856;51.460;7.158;2022-09-19T13:32:48;100794.00;;;20.50
13570;BMP180;6856;51.460;7.158;2022-09-19T13:35:26;100783.00;;;20.40
13570;BMP180;6856;51.460;7.158;2022-09-19T13:38:18;100777.00;;;20.30
13570;BMP180;6856;51.460;7.158;2022-09-19T13:41:01;100793.00;;;20.30
13570;BMP180;6856;51.460;7.158;2022-09-19T13:44:02;100787.00;;;20.30
13570;BMP180;6856;51.460;7.158;2022-09-19T13:46:52;100780.00;;;20.30
13570;BMP180;6856;51.460;7.158;2022-09-19T13:49:37;100788.00;;;20.20
13570;BMP180;6856;51.460;7.158;2022-09-19T13:52:22;100789.00;;;20.20
13570;BMP180;6856;51.460;7.158;2022-09-19T13:55:17;100785.00;;;20.20
13570;BMP180;6856;51.460;7.158;2022-09-19T13:58:17;100784.00;;;20.20
13570;BMP180;6856;51.460;7.158;2022-09-19T14:01:15;100785.00;;;20.10
13570;BMP180;6856;51.460;7.158;2022-09-19T14:03:57;100779.00;;;20.10
13570;BMP180;6856;51.460;7.158;2022-09-19T14:06:57;100768.00;;;20.10
13570;BMP180;6856;51.460;7.158;2022-09-19T14:09:54;100783.00;;;20.10
13570;BMP180;6856;51.460;7.158;2022-09-19T14:12:59;100789.00;;;20.10
13570;BMP180;6856;51.460;7.158;2022-09-19T14:16:30;100790.00;;;20.10
13570;BMP180;6856;51.460;7.158;2022-09-19T14:19:45;100776.00;;;20.10
13570;BMP180;6856;51.460;7.158;2022-09-19T14:22:40;100785.00;;;20.00
13570;BMP180;6856;51.460;7.158;2022-09-19T14:25:21;100783.00;;;20.00
13570;BMP180;6856;51.460;7.158;2022-09-19T14:28:43;100791.00;;;20.00
13570;BMP180;6856;51.460;7.158;2022-09-19T14:31:39;100774.00;;;20.10
13570;BMP180;6856;51.460;7.158;2022-09-19T14:34:55;100775.00;;;20.10
13570;BMP180;6856;51.460;7.158;2022-09-19T14:37:58;100774.00;;;20.10
13570;BMP180;6856;51.460;7.158;2022-09-19T14:40:40;100758.00;;;20.10
13570;BMP180;6856;51.460;7.158;2022-09-19T14:44:15;100764.00;;;20.10
13570;BMP180;6856;51.460;7.158;2022-09-19T14:46:59;100746.00;;;20.00
13570;BMP180;6856;51.460;7.158;2022-09-19T14:49:45;100766.00;;;20.10
13570;BMP180;6856;51.460;7.158;2022-09-19T14:52:26;100766.00;;;20.10
13570;BMP180;6856;51.460;7.158;2022-09-19T14:55:05;100780.00;;;20.10
13570;BMP180;6856;51.460;7.158;2022-09-19T14:57:45;100778.00;;;20.10
13570;BMP180;6856;51.460;7.158;2022-09-19T15:00:30;100789.00;;;20.10
13570;BMP180;6856;51.460;7.158;2022-09-19T15:03:10;100794.00;;;20.10
13570;BMP180;6856;51.460;7.158;2022-09-19T15:05:44;100798.00;;;20.10
13570;BMP180;6856;51.460;7.158;2022-09-19T15:08:28;100809.00;;;20.00
13570;BMP180;6856;51.460;7.158;2022-09-19T15:11:04;100815.00;;;20.00
13570;BMP180;6856;51.460;7.158;2022-09-19T15:13:45;100809.00;;;19.90
13570;BMP180;6856;51.460;7.158;2022-09-19T15:16:19;100799.00;;;19.80
13570;BMP180;6856;51.460;7.158;2022-09-19T15:18:56;100798.00;;;19.80
13570;BMP180;6856;51.460;7.158;2022-09-19T15:21:35;100818.00;;;19.80
13570;BMP180;6856;51.460;7.158;2022-09-19T15:24:11;100808.00;;;19.80
13570;BMP180;6856;51.460;7.158;2022-09-19T15:26:48;100808.00;;;19.80
13570;BMP180;6856;51.460;7.158;2022-09-19T15:29:26;100808.00;;;19.80
13570;BMP180;6856;51.460;7.158;2022-09-19T15:32:24;100819.00;;;19.70
13570;BMP180;6856;51.460;7.158;2022-09-19T15:35:05;100816.00;;;19.70
13570;BMP180;6856;51.460;7.158;2022-09-19T15:37:43;100826.00;;;19.60